createdAt,value
2023-01-09T00:00:54.685Z,5.70
2023-01-09T00:03:57.821Z,5.80
2023-01-09T00:07:02.176Z,5.70
2023-01-09T00:10:05.943Z,5.50
2023-01-09T00:13:11.123Z,5.40
2023-01-09T00:16:14.892Z,5.60
2023-01-09T00:19:17.937Z,5.50
2023-01-09T00:22:22.493Z,5.70
2023-01-09T00:25:25.549Z,5.70
2023-01-09T00:28:28.551Z,5.70
2023-01-09T00:31:31.983Z,5.70
2023-01-09T00:34:37.418Z,5.40
2023-01-09T00:37:41.874Z,5.30
2023-01-09T00:40:44.861Z,5.20
2023-01-09T00:43:51.251Z,5.60
2023-01-09T00:46:58.773Z,5.20
2023-01-09T00:50:04.872Z,5.20
2023-01-09T00:53:13.865Z,5.20
2023-01-09T00:56:20.303Z,5.60
2023-01-09T00:59:23.821Z,5.30
2023-01-09T01:02:29.796Z,5.40
2023-01-09T01:05:53.330Z,5.40
2023-01-09T01:08:58.800Z,5.20
2023-01-09T01:12:07.064Z,5.20
2023-01-09T01:15:18.225Z,5.10
2023-01-09T01:18:21.296Z,5.10
2023-01-09T01:21:24.389Z,5.30
2023-01-09T01:24:28.774Z,5.10
2023-01-09T01:27:31.814Z,5.30
2023-01-09T01:30:35.076Z,5.10
2023-01-09T01:33:38.111Z,5.10
2023-01-09T01:36:41.171Z,5.30
2023-01-09T01:39:45.623Z,4.90
2023-01-09T01:42:49.118Z,4.90
2023-01-09T01:45:52.396Z,5.10
2023-01-09T01:49:00.641Z,5.10
2023-01-09T01:52:03.902Z,4.90
2023-01-09T01:55:10.186Z,5.10
2023-01-09T01:58:16.745Z,4.80
2023-01-09T02:01:23.568Z,4.90
2023-01-09T02:04:27.071Z,4.90
2023-01-09T02:07:31.049Z,4.90
2023-01-09T02:10:37.964Z,4.80
2023-01-09T02:13:41.219Z,5.10
2023-01-09T02:16:53.569Z,4.70
2023-01-09T02:20:37.791Z,4.80
2023-01-09T02:24:16.485Z,5.00
2023-01-09T02:27:36.457Z,5.00
2023-01-09T02:30:48.021Z,4.80
2023-01-09T02:33:59.360Z,4.70
2023-01-09T02:37:07.957Z,4.70
2023-01-09T02:40:23.816Z,4.70
2023-01-09T02:43:27.367Z,4.80
2023-01-09T02:46:32.293Z,4.50
2023-01-09T02:49:40.378Z,4.70
2023-01-09T02:53:21.306Z,4.80
2023-01-09T02:57:02.234Z,4.70
2023-01-09T03:00:12.075Z,4.70
2023-01-09T03:03:25.289Z,4.80
2023-01-09T03:06:35.627Z,4.60
2023-01-09T03:09:42.342Z,4.80
2023-01-09T03:12:46.496Z,4.60
2023-01-09T03:15:52.293Z,4.70
2023-01-09T03:18:58.375Z,4.60
2023-01-09T03:22:01.934Z,4.40
2023-01-09T03:25:05.067Z,4.40
2023-01-09T03:28:14.217Z,4.40
2023-01-09T03:31:17.744Z,4.60
2023-01-09T03:34:23.667Z,4.70
2023-01-09T03:37:26.724Z,4.60
2023-01-09T03:40:29.838Z,4.70
2023-01-09T03:43:34.658Z,4.70
2023-01-09T03:46:37.784Z,5.00
2023-01-09T03:49:42.194Z,4.80
2023-01-09T03:52:45.238Z,4.90
2023-01-09T03:55:49.677Z,5.00
2023-01-09T03:58:53.555Z,4.90
2023-01-09T04:01:56.715Z,5.10
2023-01-09T04:05:01.221Z,5.30
2023-01-09T04:08:04.280Z,5.10
2023-01-09T04:11:07.426Z,5.20
2023-01-09T04:14:10.459Z,5.10
2023-01-09T04:17:13.466Z,5.30
2023-01-09T04:20:18.345Z,5.40
2023-01-09T04:23:21.311Z,5.20
2023-01-09T04:26:24.444Z,5.40
2023-01-09T04:29:27.516Z,5.30
2023-01-09T04:32:33.226Z,5.30
2023-01-09T04:35:37.676Z,5.40
2023-01-09T04:38:40.725Z,5.40
2023-01-09T04:41:52.659Z,5.20
2023-01-09T04:44:55.687Z,5.40
2023-01-09T04:47:58.680Z,5.40
2023-01-09T04:51:03.102Z,5.40
2023-01-09T04:54:06.976Z,5.40
2023-01-09T04:57:10.266Z,5.50
2023-01-09T05:00:13.808Z,5.50
2023-01-09T05:03:16.861Z,5.50
2023-01-09T05:06:21.235Z,5.70
2023-01-09T05:09:24.298Z,5.50
2023-01-09T05:12:27.440Z,5.90
2023-01-09T05:15:31.025Z,5.60
2023-01-09T05:18:34.024Z,5.50
2023-01-09T05:21:39.795Z,5.80
2023-01-09T05:24:43.121Z,5.80
2023-01-09T05:27:47.171Z,5.70
2023-01-09T05:30:50.285Z,5.90
2023-01-09T05:33:53.432Z,5.80
2023-01-09T05:36:57.831Z,5.80
2023-01-09T05:40:00.890Z,5.70
2023-01-09T05:43:04.126Z,5.90
2023-01-09T05:46:07.379Z,5.70
2023-01-09T05:49:10.606Z,5.90
2023-01-09T05:52:15.163Z,6.00
2023-01-09T05:55:18.377Z,6.00
2023-01-09T05:58:21.434Z,5.90
2023-01-09T06:01:24.572Z,5.70
2023-01-09T06:04:29.816Z,6.00
2023-01-09T06:07:36.579Z,5.70
2023-01-09T06:10:39.809Z,5.70
2023-01-09T06:13:42.823Z,5.80
2023-01-09T06:16:45.806Z,6.00
2023-01-09T06:19:48.829Z,5.80
2023-01-09T06:22:53.260Z,6.00
2023-01-09T06:25:56.269Z,5.90
2023-01-09T06:29:00.845Z,5.70
2023-01-09T06:32:03.914Z,5.80
2023-01-09T06:35:07.358Z,5.80
2023-01-09T06:38:12.363Z,5.60
2023-01-09T06:41:15.465Z,5.80
2023-01-09T06:44:18.434Z,5.70
2023-01-09T06:47:21.355Z,5.90
2023-01-09T06:50:24.402Z,6.10
2023-01-09T06:53:29.119Z,5.90
2023-01-09T06:56:32.274Z,6.00
2023-01-09T06:59:35.371Z,5.70
2023-01-09T07:02:38.350Z,5.70
2023-01-09T07:05:43.718Z,5.80
2023-01-09T07:08:48.111Z,6.00
2023-01-09T07:11:51.074Z,5.80
2023-01-09T07:14:56.181Z,6.00
2023-01-09T07:18:00.563Z,6.10
2023-01-09T07:21:03.684Z,5.80
2023-01-09T07:24:08.255Z,6.00
2023-01-09T07:27:11.749Z,6.10
2023-01-09T07:30:16.160Z,5.90
2023-01-09T07:33:19.219Z,6.00
2023-01-09T07:36:22.277Z,6.10
2023-01-09T07:39:27.929Z,5.90
2023-01-09T07:42:30.963Z,6.20
2023-01-09T07:45:33.974Z,6.00
2023-01-09T07:48:36.997Z,6.00
2023-01-09T07:51:43.124Z,6.30
2023-01-09T07:54:47.473Z,6.00
2023-01-09T07:57:54.201Z,6.20
2023-01-09T08:00:57.269Z,6.10
2023-01-09T08:04:00.422Z,5.90
2023-01-09T08:07:06.310Z,6.00
2023-01-09T08:10:12.060Z,6.20
2023-01-09T08:13:15.161Z,6.30
2023-01-09T08:16:18.480Z,6.00
2023-01-09T08:19:21.544Z,6.10
2023-01-09T08:22:24.493Z,6.00
2023-01-09T08:25:28.916Z,6.30
2023-01-09T08:28:32.116Z,6.20
2023-01-09T08:31:35.191Z,6.20
2023-01-09T08:34:38.229Z,6.20
2023-01-09T08:37:44.735Z,6.20
2023-01-09T08:40:49.605Z,6.50
2023-01-09T08:44:10.011Z,6.50
2023-01-09T08:47:24.207Z,6.40
2023-01-09T08:50:27.234Z,6.30
2023-01-09T08:53:31.466Z,6.50
2023-01-09T08:56:35.999Z,6.60
2023-01-09T08:59:39.159Z,6.70
2023-01-09T09:02:42.218Z,6.90
2023-01-09T09:05:46.805Z,6.50
2023-01-09T09:08:51.735Z,6.60
2023-01-09T09:11:56.184Z,6.60
2023-01-09T09:15:16.779Z,6.80
2023-01-09T09:18:19.796Z,6.70
2023-01-09T09:21:22.855Z,6.60
2023-01-09T09:24:25.871Z,6.90
2023-01-09T09:27:30.245Z,6.80
2023-01-09T09:30:33.477Z,6.70
2023-01-09T09:33:36.411Z,6.80
2023-01-09T09:36:39.468Z,7.00
2023-01-09T09:39:42.498Z,6.70
2023-01-09T09:43:20.926Z,6.90
2023-01-09T09:46:34.204Z,6.60
2023-01-09T09:49:44.136Z,6.80
2023-01-09T09:52:58.405Z,6.90
2023-01-09T09:56:02.899Z,6.90
2023-01-09T09:59:16.142Z,6.90
2023-01-09T10:02:28.738Z,7.00
2023-01-09T10:05:35.841Z,7.20
2023-01-09T10:08:44.502Z,7.10
2023-01-09T10:11:55.303Z,7.50
2023-01-09T10:15:01.471Z,7.30
2023-01-09T10:18:20.319Z,7.40
2023-01-09T10:21:31.272Z,7.60
2023-01-09T10:24:45.329Z,7.40
2023-01-09T10:28:08.219Z,7.60
2023-01-09T10:31:18.524Z,7.50
2023-01-09T10:34:37.855Z,7.70
2023-01-09T10:37:45.818Z,7.50
2023-01-09T10:40:59.511Z,7.60
2023-01-09T10:44:09.336Z,7.70
2023-01-09T10:47:19.296Z,7.70
2023-01-09T10:50:24.552Z,7.80
2023-01-09T10:53:30.854Z,7.70
2023-01-09T10:56:38.298Z,7.80
2023-01-09T10:59:41.830Z,7.80
2023-01-09T11:02:46.500Z,7.90
2023-01-09T11:05:53.120Z,7.90
2023-01-09T11:09:00.115Z,7.90
2023-01-09T11:12:25.171Z,7.90
2023-01-09T11:15:31.982Z,7.90
2023-01-09T11:18:39.608Z,8.20
2023-01-09T11:21:42.835Z,7.90
2023-01-09T11:24:46.283Z,8.00
2023-01-09T11:28:08.263Z,8.00
2023-01-09T11:31:11.843Z,8.00
2023-01-09T11:34:19.771Z,8.00
2023-01-09T11:37:27.386Z,8.00
2023-01-09T11:40:32.889Z,8.00
2023-01-09T11:43:38.904Z,8.00
2023-01-09T11:46:44.686Z,8.00
2023-01-09T11:49:51.296Z,8.20
2023-01-09T11:53:14.147Z,8.10
2023-01-09T11:56:18.331Z,8.10
2023-01-09T11:59:23.871Z,8.20
2023-01-09T12:03:12.659Z,8.20
2023-01-09T12:06:30.171Z,8.30
2023-01-09T12:09:42.458Z,8.30
2023-01-09T12:12:55.800Z,8.30
2023-01-09T12:16:09.517Z,8.40
2023-01-09T12:19:41.967Z,8.60
2023-01-09T12:22:57.319Z,8.70
2023-01-09T12:26:14.075Z,9.00
2023-01-09T12:29:41.537Z,9.00
2023-01-09T12:33:12.111Z,9.00
2023-01-09T12:36:25.481Z,9.10
2023-01-09T12:39:43.708Z,9.20
2023-01-09T12:42:54.312Z,9.10
2023-01-09T12:46:08.450Z,9.10
2023-01-09T12:49:28.979Z,9.10
2023-01-09T12:52:37.915Z,9.20
2023-01-09T12:55:47.968Z,9.30
2023-01-09T12:58:54.169Z,9.30
2023-01-09T13:02:05.722Z,9.30
2023-01-09T13:05:15.786Z,9.20
2023-01-09T13:08:24.449Z,9.10
2023-01-09T13:11:38.875Z,9.10
2023-01-09T13:14:51.728Z,9.00
2023-01-09T13:17:58.635Z,8.90
2023-01-09T13:21:02.177Z,8.90
2023-01-09T13:24:14.744Z,8.90
2023-01-09T13:27:28.773Z,8.90
2023-01-09T13:31:01.589Z,9.00
2023-01-09T13:34:14.190Z,8.90
2023-01-09T13:37:25.842Z,8.90
2023-01-09T13:40:32.848Z,8.90
2023-01-09T13:43:55.820Z,8.90
2023-01-09T13:47:01.080Z,9.00
2023-01-09T13:50:26.613Z,9.00
2023-01-09T13:53:51.011Z,8.90
2023-01-09T13:57:26.043Z,8.80
2023-01-09T14:00:52.093Z,8.80
2023-01-09T14:04:31.986Z,8.80
2023-01-09T14:07:42.344Z,8.70
2023-01-09T14:10:50.194Z,8.60
2023-01-09T14:14:03.105Z,8.90
2023-01-09T14:17:18.617Z,8.60
2023-01-09T14:20:29.154Z,8.60
2023-01-09T14:23:50.785Z,8.60
2023-01-09T14:26:57.262Z,8.50
2023-01-09T14:30:29.724Z,8.50
2023-01-09T14:33:35.800Z,8.50
2023-01-09T14:36:39.053Z,8.50
2023-01-09T14:39:45.910Z,8.50
2023-01-09T14:42:53.628Z,8.50
2023-01-09T14:46:07.700Z,8.50
2023-01-09T14:49:22.221Z,8.50
2023-01-09T14:52:30.417Z,8.40
2023-01-09T14:55:41.151Z,8.40
2023-01-09T14:58:44.206Z,8.50
2023-01-09T15:01:51.384Z,8.40
2023-01-09T15:04:58.023Z,8.40
2023-01-09T15:08:05.390Z,8.40
2023-01-09T15:11:13.301Z,8.30
2023-01-09T15:14:24.445Z,8.20
2023-01-09T15:17:31.752Z,8.20
2023-01-09T15:20:36.622Z,8.10
2023-01-09T15:23:39.669Z,8.20
2023-01-09T15:26:43.046Z,8.10
2023-01-09T15:29:46.299Z,8.20
2023-01-09T15:32:51.242Z,8.10
2023-01-09T15:36:00.298Z,8.30
2023-01-09T15:39:03.701Z,8.00
2023-01-09T15:42:38.036Z,7.90
2023-01-09T15:45:43.134Z,8.00
2023-01-09T15:48:46.356Z,8.00
2023-01-09T15:51:52.092Z,8.10
2023-01-09T15:54:55.351Z,8.00
2023-01-09T15:57:58.401Z,8.30
2023-01-09T16:01:03.822Z,8.30
2023-01-09T16:04:09.000Z,8.20
2023-01-09T16:07:17.297Z,8.10
2023-01-09T16:10:26.258Z,8.20
2023-01-09T16:13:32.580Z,8.20
2023-01-09T16:16:37.114Z,8.20
2023-01-09T16:19:47.963Z,8.10
2023-01-09T16:22:56.725Z,8.20
2023-01-09T16:26:10.787Z,8.10
2023-01-09T16:29:38.825Z,8.00
2023-01-09T16:32:48.463Z,8.10
2023-01-09T16:35:53.820Z,8.10
2023-01-09T16:39:02.917Z,8.00
2023-01-09T16:42:27.444Z,7.90
2023-01-09T16:45:34.153Z,7.90
2023-01-09T16:48:37.726Z,7.90
2023-01-09T16:51:41.982Z,7.90
2023-01-09T16:54:47.595Z,7.80
2023-01-09T16:57:50.997Z,7.90
2023-01-09T17:00:57.595Z,7.90
2023-01-09T17:04:00.682Z,7.90
2023-01-09T17:07:03.752Z,7.60
2023-01-09T17:10:20.522Z,7.60
2023-01-09T17:13:25.190Z,7.50
2023-01-09T17:16:29.068Z,7.50
2023-01-09T17:19:32.108Z,7.40
2023-01-09T17:22:35.146Z,7.40
2023-01-09T17:26:10.733Z,7.30
2023-01-09T17:29:13.756Z,7.60
2023-01-09T17:32:17.815Z,7.40
2023-01-09T17:35:20.920Z,7.40
2023-01-09T17:38:23.998Z,7.40
2023-01-09T17:41:31.811Z,7.50
2023-01-09T17:44:34.844Z,7.60
2023-01-09T17:47:37.896Z,7.60
2023-01-09T17:50:40.965Z,7.60
2023-01-09T17:53:44.002Z,7.50
2023-01-09T17:56:52.228Z,7.20
2023-01-09T17:59:55.238Z,7.20
2023-01-09T18:02:58.559Z,7.20
2023-01-09T18:06:01.857Z,7.40
2023-01-09T18:09:05.577Z,7.40
2023-01-09T18:12:10.617Z,7.20
2023-01-09T18:15:15.474Z,7.40
2023-01-09T18:18:19.968Z,7.20
2023-01-09T18:21:24.767Z,7.20
2023-01-09T18:24:28.102Z,7.50
2023-01-09T18:27:32.559Z,7.20
2023-01-09T18:30:35.823Z,7.30
2023-01-09T18:33:38.920Z,7.20
2023-01-09T18:36:41.952Z,7.40
2023-01-09T18:39:45.121Z,7.10
2023-01-09T18:42:49.467Z,7.30
2023-01-09T18:45:53.084Z,6.90
2023-01-09T18:48:57.371Z,7.00
2023-01-09T18:52:00.427Z,7.30
2023-01-09T18:55:03.558Z,7.20
2023-01-09T18:58:08.048Z,7.30
2023-01-09T19:01:11.176Z,7.20
2023-01-09T19:04:14.276Z,7.20
2023-01-09T19:07:17.554Z,7.20
2023-01-09T19:10:20.854Z,7.20
2023-01-09T19:13:25.922Z,7.30
2023-01-09T19:16:29.026Z,7.20
2023-01-09T19:19:39.250Z,7.20
2023-01-09T19:22:42.347Z,7.20
2023-01-09T19:25:45.352Z,7.30
2023-01-09T19:28:50.237Z,7.60
2023-01-09T19:31:53.363Z,7.30
2023-01-09T19:34:56.469Z,7.30
2023-01-09T19:37:59.639Z,7.40
2023-01-09T19:41:12.969Z,7.50
2023-01-09T19:44:18.969Z,7.50
2023-01-09T19:47:21.967Z,7.50
2023-01-09T19:50:24.955Z,7.50
2023-01-09T19:53:30.160Z,7.50
2023-01-09T19:56:35.565Z,7.50
2023-01-09T19:59:40.459Z,7.60
2023-01-09T20:02:44.068Z,7.60
2023-01-09T20:05:47.145Z,7.60
2023-01-09T20:08:53.868Z,7.60
2023-01-09T20:11:58.387Z,7.70
2023-01-09T20:15:02.843Z,7.70
2023-01-09T20:18:07.770Z,7.60
2023-01-09T20:21:18.425Z,7.70
2023-01-09T20:24:21.600Z,7.60
2023-01-09T20:27:24.622Z,7.90
2023-01-09T20:30:28.991Z,7.70
2023-01-09T20:33:32.003Z,7.70
2023-01-09T20:36:35.140Z,7.70
2023-01-09T20:39:39.849Z,7.70
2023-01-09T20:42:42.886Z,7.70
2023-01-09T20:45:47.343Z,7.70
2023-01-09T20:48:50.655Z,7.70
2023-01-09T20:51:53.964Z,7.70
2023-01-09T20:54:56.967Z,7.60
2023-01-09T20:58:00.162Z,7.60
2023-01-09T21:01:08.312Z,7.70
2023-01-09T21:04:11.376Z,7.70
2023-01-09T21:07:14.401Z,7.70
2023-01-09T21:10:19.078Z,7.80
2023-01-09T21:13:22.123Z,7.70
2023-01-09T21:16:26.597Z,7.90
2023-01-09T21:19:29.630Z,8.00
2023-01-09T21:22:33.844Z,7.70
2023-01-09T21:25:40.287Z,7.70
2023-01-09T21:28:48.928Z,7.80
2023-01-09T21:31:55.541Z,7.70
2023-01-09T21:35:04.269Z,7.70
2023-01-09T21:38:08.231Z,7.70
2023-01-09T21:41:29.011Z,7.80
2023-01-09T21:44:53.645Z,7.70
2023-01-09T21:47:58.069Z,7.70
2023-01-09T21:51:03.551Z,7.90
2023-01-09T21:54:06.717Z,7.90
2023-01-09T21:57:10.170Z,7.70
2023-01-09T22:00:14.654Z,7.60
2023-01-09T22:03:19.088Z,7.90
2023-01-09T22:06:29.477Z,7.70
2023-01-09T22:09:32.533Z,7.60
2023-01-09T22:12:35.603Z,7.60
2023-01-09T22:15:38.651Z,7.80
2023-01-09T22:18:43.228Z,7.60
2023-01-09T22:21:46.284Z,7.60
2023-01-09T22:24:50.210Z,7.60
2023-01-09T22:27:53.511Z,7.50
2023-01-09T22:30:56.512Z,7.50
2023-01-09T22:34:02.541Z,7.60
2023-01-09T22:37:05.862Z,7.50
2023-01-09T22:40:10.714Z,7.50
2023-01-09T22:43:16.309Z,7.50
2023-01-09T22:46:20.003Z,7.50
2023-01-09T22:49:51.339Z,7.50
2023-01-09T22:52:57.683Z,7.50
2023-01-09T22:56:02.649Z,7.40
2023-01-09T22:59:05.585Z,7.40
2023-01-09T23:02:08.683Z,7.40
2023-01-09T23:05:13.350Z,7.50
2023-01-09T23:08:16.699Z,7.40
2023-01-09T23:11:42.121Z,7.50
2023-01-09T23:14:47.855Z,7.40
2023-01-09T23:17:51.134Z,7.40
2023-01-09T23:20:57.172Z,7.60
2023-01-09T23:24:00.132Z,7.40
2023-01-09T23:27:03.135Z,7.20
2023-01-09T23:30:07.149Z,7.30
2023-01-09T23:33:10.215Z,7.40
2023-01-09T23:36:14.628Z,7.10
2023-01-09T23:39:17.699Z,7.20
2023-01-09T23:42:42.852Z,7.40
2023-01-09T23:45:47.233Z,7.30
2023-01-09T23:48:50.290Z,7.30
2023-01-09T23:51:54.754Z,7.30
2023-01-09T23:54:57.790Z,7.40
2023-01-09T23:58:00.836Z,7.30
